Latest Weather Observations for Cape Byron

IDN60801

Issued at 2:32 pm EST Sunday 19 April 2015 (issued every 30 minutes, with the page automatically refreshed every 10 minutes)

About weather observations | Map of weather stations | Latest weather observations for NSW | Other Formats
Station Details ID: 058216 Name: CAPE BYRON AWS Lat: -28.64 Lon: 153.64 Height: 95.0 m
Data from the previous 72 hours. | See also: Recent months at Cape Byron
Date/Time
EST
Temp
°C
App
Temp
°C
Dew
Point
Rel
Hum
%
Delta-T
°C
Wind Press
QNH
hPa
Press
MSL
hPa
Rain
since 9 am
mm
Dir
 
Spd
km/h
Gust
km/h
Spd
kts
Gust
kts
19/02:30pm 26.7 27.2 19.3 64 4.8 NNE 15 22 8 12 1017.0 1016.6 0.0
19/02:00pm 26.7 28.2 19.8 66 4.5 NNE 11 19 6 10 1017.3 1016.9 0.0
19/01:30pm 26.9 29.0 19.0 62 5.1 SW 6 11 3 6 1017.5 1017.1 0.0
19/01:00pm 27.0 28.3 17.5 56 6.0 WSW 7 13 4 7 1017.7 1017.3 0.0
19/12:30pm 28.2 29.3 18.9 57 6.0 NNE 11 15 6 8 1017.9 1017.5 0.0
19/12:00pm 27.2 28.7 18.8 60 5.4 N 9 15 5 8 1018.5 1018.1 0.0
19/11:30am 25.3 26.2 19.2 69 3.9 NNW 13 22 7 12 1018.8 1018.4 0.0
19/11:00am 26.1 25.7 18.8 64 4.7 N 19 30 10 16 1018.8 1018.4 0.0
19/10:30am 25.6 25.6 19.0 67 4.2 N 17 26 9 14 1018.9 1018.5 0.0
19/10:00am 25.2 25.6 19.1 69 3.9 N 15 22 8 12 1019.1 1018.7 0.0
19/09:30am 24.7 24.9 18.6 69 3.9 N 15 22 8 12 1019.4 1019.0 0.0
19/09:00am 23.7 24.2 18.4 72 3.3 N 13 24 7 13 1019.4 1019.0 0.0
19/08:30am 23.3 23.7 18.2 73 3.2 NNW 13 22 7 12 1019.3 1018.9 0.0
19/08:00am 22.7 22.7 18.0 75 2.9 N 15 24 8 13 1019.3 1018.9 0.0
19/07:30am 22.8 23.8 18.6 77 2.7 NNE 11 19 6 10 1019.2 1018.8 0.0
19/07:00am 22.1 22.3 18.5 80 2.3 N 15 24 8 13 1018.8 1018.4 0.0
19/06:30am 21.5 21.9 18.1 81 2.1 N 13 19 7 10 1018.5 1018.1 0.0
19/06:00am 21.3 21.3 18.1 82 2.0 NNW 15 24 8 13 1018.3 1017.9 0.0
19/05:30am 21.2 22.4 18.2 83 1.9 NE 9 13 5 7 1018.3 1017.9 0.0
19/05:00am 21.1 22.2 17.9 82 2.0 NNW 9 15 5 8 1018.3 1017.9 0.0
19/04:30am 21.3 21.7 18.1 82 2.0 N 13 24 7 13 1018.2 1017.8 0.0
19/04:00am 21.5 20.6 18.1 81 2.1 N 20 32 11 17 1017.9 1017.5 0.0
19/03:30am 21.5 20.7 18.1 81 2.1 NNW 19 28 10 15 1018.2 1017.8 0.0
19/03:00am 21.4 20.5 18.2 82 2.0 N 20 32 11 17 1018.3 1017.9 0.0
19/02:30am 21.4 20.5 18.2 82 2.0 NNW 20 28 11 15 1018.5 1018.1 0.0
19/02:00am 21.3 20.7 18.5 84 1.8 N 19 30 10 16 1019.1 1018.7 0.0
19/01:30am 20.2 17.1 17.6 85 1.6 N 30 39 16 21 1019.9 1019.6 0.0
19/01:00am 21.6 18.6 18.6 83 1.9 N 32 44 17 24 1019.7 1019.3 0.0
19/12:30am 22.0 21.6 18.0 78 2.5 NNW 17 30 9 16 1020.0 1019.7 0.0
19/12:00am 23.5 20.3 17.3 68 3.8 N 30 41 16 22 1020.1 1019.8 0.0
 
Date/Time
EST
Temp
°C
App
Temp
°C
Dew
Point
Rel
Hum
%
Delta-T
°C
Wind Press
QNH
hPa
Press
MSL
hPa
Rain
since 9 am
mm
Dir
 
Spd
km/h
Gust
km/h
Spd
kts
Gust
kts
18/11:30pm 23.5 21.2 17.7 70 3.6 NNE 26 35 14 19 1020.2 1019.9 0.0
18/11:00pm 23.5 20.8 17.5 69 3.7 NNE 28 41 15 22 1020.3 1020.0 0.0
18/10:30pm 23.6 20.8 17.3 67 3.9 NNE 28 41 15 22 1020.5 1020.2 0.0
18/10:00pm 23.7 20.9 17.4 68 3.9 NNE 28 41 15 22 1020.7 1020.4 0.0
18/09:30pm 23.7 21.3 17.4 68 3.9 NNE 26 39 14 21 1020.9 1020.6 0.0
18/09:00pm 23.7 20.9 17.2 67 4.0 NNE 28 39 15 21 1020.9 1020.6 0.0
18/08:30pm 23.7 21.8 17.7 69 3.8 NNE 24 37 13 20 1021.0 1020.7 0.0
18/08:00pm 23.7 21.4 17.7 69 3.7 NNE 26 35 14 19 1020.8 1020.5 0.0
18/07:36pm 23.6 20.2 17.8 70 3.6 NE 32 50 17 27 1020.5 1020.2 0.0
18/07:30pm 23.6 18.9 17.8 70 3.6 NE 39 52 21 28 1020.2 1019.9 0.0
18/07:16pm 23.6 20.2 17.8 70 3.6 NE 32 50 17 27 1019.9 1019.6 0.0
18/07:00pm 23.7 20.2 17.9 70 3.6 NE 33 46 18 25 1020.0 1019.7 0.0
18/06:54pm 23.6 20.9 17.6 69 3.7 NE 28 46 15 25 1019.9 1019.6 0.0
18/06:30pm 23.8 21.8 17.5 68 3.9 NNE 24 37 13 20 1020.2 1019.9 0.0
18/06:00pm 23.8 21.8 17.5 68 3.9 NNE 24 37 13 20 1020.3 1020.0 0.0
18/05:30pm 23.9 22.1 17.9 69 3.8 NNE 24 33 13 18 1020.1 1019.8 0.0
18/05:00pm 24.0 22.4 17.5 67 4.0 NNE 22 35 12 19 1020.0 1019.7 0.0
18/04:30pm 24.4 22.2 16.9 63 4.6 NNE 24 35 13 19 1019.8 1019.4 0.0
18/04:00pm 24.6 22.9 17.1 63 4.7 NNE 22 35 12 19 1019.7 1019.3 0.0
18/03:30pm 24.5 22.7 17.0 63 4.7 NNE 22 33 12 18 1019.6 1019.2 0.0
18/03:00pm 25.0 23.3 17.2 62 4.9 NNE 22 32 12 17 1019.7 1019.3 0.0
18/02:30pm 25.2 23.8 16.9 60 5.2 NNE 20 32 11 17 1019.7 1019.3 0.0
18/02:00pm 25.3 23.5 17.0 60 5.2 NNE 22 32 12 17 1019.8 1019.4 0.0
18/01:30pm 25.5 23.6 16.6 58 5.5 NNE 22 30 12 16 1020.2 1019.9 0.0
18/01:00pm 26.0 24.3 17.1 58 5.5 NNE 22 35 12 19 1020.6 1020.3 0.0
18/12:30pm 25.8 24.5 17.2 59 5.4 NNE 20 28 11 15 1021.1 1020.8 0.0
18/12:00pm 25.9 24.5 17.0 58 5.5 NNE 20 32 11 17 1021.5 1021.2 0.0
18/11:30am 25.7 24.9 17.1 59 5.4 NNE 17 24 9 13 1022.2 1021.9 0.0
18/11:00am 25.7 26.2 18.4 64 4.6 N 13 17 7 9 1022.7 1022.4 0.0
18/10:30am 25.4 25.1 17.3 61 5.1 N 15 20 8 11 1023.0 1022.7 0.0
18/10:00am 24.4 24.7 16.9 63 4.6 N 11 15 6 8 1023.4 1023.1 0.0
18/09:30am 24.9 25.8 17.6 64 4.6 N 9 11 5 6 1023.7 1023.4 0.0
18/09:00am 24.4 25.8 17.9 67 4.1 N 7 11 4 6 1023.9 1023.6 0.0
18/08:30am 23.1 25.1 18.8 77 2.7 NW 6 11 3 6 1023.8 1023.5 0.0
18/08:00am 22.8 24.3 17.7 73 3.2 NW 6 9 3 5 1023.5 1023.2 0.0
18/07:30am 23.9 21.9 17.4 67 4.0 NE 24 35 13 19 1023.0 1022.7 0.0
18/07:00am 23.2 19.7 17.4 70 3.6 NE 32 44 17 24 1022.5 1022.2 0.0
18/06:30am 21.5 21.0 17.9 80 2.2 NNE 17 28 9 15 1022.2 1021.9 0.0
18/06:00am 20.7 21.7 16.9 79 2.3 NNW 7 11 4 6 1022.1 1021.8 0.0
18/05:30am 21.5 20.4 17.7 79 2.4 NE 20 39 11 21 1021.7 1021.4 0.0
18/05:00am 20.4 20.8 16.2 77 2.5 NW 9 13 5 7 1022.0 1021.7 0.0
18/04:30am 20.7 21.4 16.1 75 2.8 NW 7 13 4 7 1022.2 1021.9 0.0
18/04:00am 20.5 20.8 16.1 76 2.6 WNW 9 13 5 7 1022.0 1021.7 0.0
18/03:30am 20.2 20.1 16.0 77 2.5 WNW 11 15 6 8 1022.0 1021.7 0.0
18/03:00am 20.3 20.6 16.1 77 2.5 NW 9 11 5 6 1022.2 1021.9 0.0
18/02:30am 20.5 20.4 16.1 76 2.6 NNW 11 13 6 7 1022.4 1022.1 0.0
18/02:00am 20.8 21.1 16.0 74 2.9 NW 9 11 5 6 1022.7 1022.4 0.0
18/01:30am 21.9 22.3 16.2 70 3.5 NNW 9 15 5 8 1023.0 1022.7 0.0
18/01:00am 22.6 19.2 15.9 66 4.0 NE 28 35 15 19 1023.0 1022.7 0.0
18/12:30am 22.5 19.9 16.8 70 3.5 ENE 26 35 14 19 1023.1 1022.8 0.0
18/12:00am 22.7 21.4 15.8 65 4.2 NE 17 24 9 13 1023.5 1023.2 0.0
 
Date/Time
EST
Temp
°C
App
Temp
°C
Dew
Point
Rel
Hum
%
Delta-T
°C
Wind Press
QNH
hPa
Press
MSL
hPa
Rain
since 9 am
mm
Dir
 
Spd
km/h
Gust
km/h
Spd
kts
Gust
kts
17/11:30pm 22.6 20.8 15.9 66 4.1 NE 20 26 11 14 1023.6 1023.3 0.0
17/11:00pm 22.6 19.8 15.4 64 4.3 NE 24 32 13 17 1023.6 1023.3 0.0
17/10:30pm 22.6 19.9 15.7 65 4.2 NE 24 30 13 16 1023.8 1023.5 0.0
17/10:00pm 22.6 20.4 15.9 66 4.0 NE 22 30 12 16 1023.9 1023.6 0.0
17/09:30pm 22.6 19.7 16.2 67 3.9 NE 26 32 14 17 1023.8 1023.5 0.0
17/09:00pm 22.7 21.1 16.0 66 4.0 NE 19 26 10 14 1023.9 1023.6 0.0
17/08:30pm 22.5 19.3 16.3 68 3.8 NE 28 33 15 18 1023.8 1023.5 0.0
17/08:00pm 22.5 19.9 15.8 66 4.0 NE 24 33 13 18 1023.6 1023.3 0.0
17/07:30pm 22.6 20.6 16.4 68 3.8 NE 22 32 12 17 1023.4 1023.1 0.0
17/07:00pm 22.2 19.1 16.5 70 3.5 NE 28 33 15 18 1023.0 1022.7 0.0
17/06:30pm 22.0 19.7 16.7 72 3.2 ENE 24 30 13 16 1022.7 1022.4 0.0
17/06:00pm 22.5 19.0 16.5 69 3.7 NE 30 37 16 20 1022.3 1022.0 0.0
17/05:30pm 22.5 19.4 16.5 69 3.7 ENE 28 30 15 16 1022.1 1021.8 0.0
17/05:00pm 23.0 20.8 16.8 68 3.8 ENE 24 30 13 16 1021.9 1021.6 0.0
17/04:30pm 24.4 22.8 17.4 65 4.4 ENE 22 30 12 16 1021.8 1021.5 0.0
17/04:00pm 25.0 23.4 17.5 63 4.7 ENE 22 30 12 16 1021.8 1021.5 0.0
17/03:30pm 25.8 24.9 17.7 61 5.1 ENE 19 28 10 15 1021.8 1021.5 0.0
17/03:00pm 26.2 25.4 18.1 61 5.1 ENE 19 26 10 14 1021.9 1021.6 0.0
17/02:30pm 26.7 25.5 17.5 57 5.8 ENE 20 26 11 14 1021.9 1021.6 0.0
17/02:00pm 27.3 28.3 19.4 62 5.1 ENE 13 19 7 10 1022.1 1021.8 0.0
17/01:30pm 26.7 27.0 18.8 62 5.1 ENE 15 19 8 10 1022.2 1021.9 0.0
17/01:00pm 27.0 27.0 18.0 58 5.7 NE 15 17 8 9 1022.6 1022.3 0.0
17/12:30pm 26.8 26.9 18.4 60 5.4 NE 15 20 8 11 1023.1 1022.8 0.0
17/12:00pm 26.2 26.5 17.8 60 5.3 NE 13 17 7 9 1023.6 1023.3 0.0
17/11:30am 26.1 26.9 18.2 61 5.0 NNE 11 17 6 9 1024.1 1023.8 0.0
17/11:00am 25.7 26.6 17.6 61 5.1 NNE 9 15 5 8 1024.4 1024.1 0.0
17/10:30am 25.5 26.6 17.9 63 4.8 N 9 13 5 7 1024.8 1024.5 0.0
17/10:00am 25.2 26.2 17.7 63 4.7 NNE 9 11 5 6 1024.9 1024.6 0.0
17/09:30am 24.4 25.4 16.9 63 4.6 N 7 11 4 6 1025.3 1025.0 0.0
17/09:00am 24.0 25.2 17.3 66 4.2 N 7 11 4 6 1025.1 1024.8 0.0
17/08:30am 23.1 24.2 17.1 69 3.7 N 7 11 4 6 1024.9 1024.6 0.0
17/08:00am 22.4 22.8 16.4 69 3.6 N 9 13 5 7 1024.7 1024.4 0.0
17/07:30am 20.2 20.0 16.6 80 2.2 WNW 13 17 7 9 1025.0 1024.7 0.0
17/07:00am 19.1 19.1 16.3 84 1.7 WNW 11 13 6 7 1024.6 1024.3 0.0
17/06:30am 18.7 18.7 16.3 86 1.4 WNW 11 15 6 8 1024.2 1023.9 0.0
17/06:00am 18.1 18.0 15.9 87 1.3 WNW 11 15 6 8 1023.9 1023.6 0.0
17/05:30am 18.1 17.7 16.1 88 1.2 NW 13 15 7 8 1023.7 1023.4 0.0
17/05:00am 18.3 18.2 15.9 86 1.4 NW 11 15 6 8 1023.2 1022.9 0.0
17/04:30am 18.8 18.9 16.4 86 1.4 NNW 11 15 6 8 1023.0 1022.7 0.0
17/04:00am 18.9 18.9 16.3 85 1.6 NNW 11 13 6 7 1022.9 1022.6 0.0
17/03:30am 19.0 19.0 16.2 84 1.7 NNW 11 15 6 8 1022.8 1022.5 0.0
17/03:00am 18.8 18.7 15.9 83 1.7 NW 11 13 6 7 1023.0 1022.7 0.0
17/02:30am 19.4 19.3 16.1 81 2.0 NNW 11 15 6 8 1023.2 1022.9 0.0
17/02:00am 19.6 19.5 16.1 80 2.1 NNW 11 13 6 7 1023.4 1023.1 0.0
17/01:30am 19.4 19.3 16.1 81 2.0 NNW 11 15 6 8 1023.7 1023.4 0.0
17/01:00am 19.7 20.0 16.0 79 2.2 NNW 9 11 5 6 1024.0 1023.7 0.0
17/12:30am 19.7 20.0 16.0 79 2.2 NW 9 11 5 6 1024.3 1024.0 0.0
17/12:00am 19.6 19.5 16.1 80 2.1 NW 11 15 6 8 1024.7 1024.4 0.0
 
Date/Time
EST
Temp
°C
App
Temp
°C
Dew
Point
Rel
Hum
%
Delta-T
°C
Wind Press
QNH
hPa
Press
MSL
hPa
Rain
since 9 am
mm
Dir
 
Spd
km/h
Gust
km/h
Spd
kts
Gust
kts
16/11:30pm 19.7 19.6 16.0 79 2.2 NW 11 15 6 8 1024.8 1024.5 0.0
16/11:00pm 20.2 20.1 16.0 77 2.5 NW 11 15 6 8 1024.9 1024.6 0.0
16/10:30pm 20.9 21.2 15.9 73 3.0 NNW 9 15 5 8 1024.8 1024.5 0.0
16/10:00pm 22.4 21.3 16.4 69 3.6 NNE 17 20 9 11 1024.8 1024.5 0.0
16/09:30pm 22.4 21.2 16.0 67 3.9 NE 17 24 9 13 1024.9 1024.6 0.0
16/09:00pm 22.4 20.8 16.0 67 3.9 NE 19 28 10 15 1024.7 1024.4 0.0
16/08:30pm 22.4 20.7 15.7 66 4.0 NE 19 26 10 14 1024.8 1024.5 0.0
16/08:00pm 22.4 20.6 16.0 67 3.9 NE 20 28 11 15 1024.7 1024.4 0.0
16/07:30pm 22.3 20.7 15.9 67 3.9 NE 19 22 10 12 1024.6 1024.3 0.0
16/07:00pm 22.1 20.3 15.9 68 3.7 NE 20 26 11 14 1024.2 1023.9 0.0
16/06:30pm 22.0 20.8 16.1 69 3.6 ENE 17 22 9 12 1024.2 1023.9 0.0
16/06:00pm 22.0 21.2 16.1 69 3.6 ENE 15 20 8 11 1024.0 1023.7 0.0
16/05:30pm 22.4 21.9 16.0 67 3.9 ENE 13 19 7 10 1023.8 1023.5 0.0
16/05:00pm 23.0 21.5 15.3 62 4.6 NE 17 24 9 13 1023.6 1023.3 0.0
16/04:30pm 24.1 23.0 16.4 62 4.7 ENE 17 20 9 11 1023.3 1023.0 0.0
16/04:00pm 25.1 24.6 16.8 60 5.1 ENE 15 20 8 11 1023.2 1022.9 0.0
16/03:30pm 25.4 25.0 17.1 60 5.2 ENE 15 20 8 11 1023.3 1023.0 0.0
16/03:00pm 26.0 25.6 17.1 58 5.5 ENE 15 20 8 11 1023.4 1023.1 0.0

Other Formats:

Comma delimited format used in spreadsheet applications
http://www.bom.gov.au/fwo/IDN60801/IDN60801.94599.axf

JavaScript Object Notation format (JSON) in row-major order
http://www.bom.gov.au/fwo/IDN60801/IDN60801.94599.json